createdAt,value
2023-05-18T00:01:54.018Z,12.00
2023-05-18T00:04:24.177Z,12.57
2023-05-18T00:06:56.881Z,11.30
2023-05-18T00:09:26.839Z,13.63
2023-05-18T00:11:55.068Z,13.07
2023-05-18T00:14:23.458Z,10.33
2023-05-18T00:16:53.880Z,13.47
2023-05-18T00:19:22.391Z,11.03
2023-05-18T00:21:51.532Z,13.37
2023-05-18T00:24:20.667Z,13.30
2023-05-18T00:26:50.429Z,11.17
2023-05-18T00:29:18.890Z,11.20
2023-05-18T00:31:46.913Z,12.73
2023-05-18T00:34:16.663Z,12.53
2023-05-18T00:36:44.902Z,13.90
2023-05-18T00:39:13.046Z,10.80
2023-05-18T00:41:41.124Z,11.77
2023-05-18T00:44:10.909Z,11.83
2023-05-18T00:46:39.069Z,11.87
2023-05-18T00:49:07.249Z,13.50
2023-05-18T00:51:35.918Z,12.93
2023-05-18T00:54:06.192Z,16.47
2023-05-18T00:56:34.497Z,10.67
2023-05-18T00:59:04.773Z,11.60
2023-05-18T01:01:36.281Z,15.40
2023-05-18T01:04:05.079Z,15.23
2023-05-18T01:06:35.813Z,11.90
2023-05-18T01:09:07.315Z,12.03
2023-05-18T01:11:45.058Z,14.27
2023-05-18T01:14:19.570Z,13.17
2023-05-18T01:16:56.661Z,15.60
2023-05-18T01:19:43.204Z,15.30
2023-05-18T01:22:29.600Z,12.60
2023-05-18T01:25:04.722Z,14.73
2023-05-18T01:27:37.693Z,14.13
2023-05-18T01:30:07.130Z,14.67
2023-05-18T01:32:42.619Z,11.70
2023-05-18T01:35:11.141Z,12.90
2023-05-18T01:37:39.179Z,15.53
2023-05-18T01:40:09.329Z,13.97
2023-05-18T01:42:45.971Z,13.57
2023-05-18T01:45:19.324Z,15.80
2023-05-18T01:47:49.739Z,14.70
2023-05-18T01:50:20.489Z,14.53
2023-05-18T01:52:53.970Z,15.40
2023-05-18T01:55:24.045Z,14.37
2023-05-18T01:57:55.314Z,13.10
2023-05-18T02:00:24.260Z,12.27
2023-05-18T02:02:52.329Z,16.93
2023-05-18T02:05:20.464Z,12.67
2023-05-18T02:07:48.961Z,13.33
2023-05-18T02:10:17.114Z,11.67
2023-05-18T02:12:48.985Z,14.37
2023-05-18T02:15:18.482Z,14.97
2023-05-18T02:17:47.403Z,15.40
2023-05-18T02:20:18.529Z,12.67
2023-05-18T02:22:46.922Z,13.17
2023-05-18T02:25:14.990Z,11.93
2023-05-18T02:27:43.046Z,20.27
2023-05-18T02:30:14.449Z,13.47
2023-05-18T02:32:49.143Z,18.07
2023-05-18T02:35:18.199Z,18.13
2023-05-18T02:37:47.286Z,14.67
2023-05-18T02:40:16.061Z,16.97
2023-05-18T02:42:44.231Z,14.10
2023-05-18T02:45:14.598Z,15.70
2023-05-18T02:47:44.538Z,13.07
2023-05-18T02:50:13.023Z,15.30
2023-05-18T02:52:41.694Z,15.67
2023-05-18T02:55:10.314Z,13.60
2023-05-18T02:57:38.332Z,17.83
2023-05-18T03:00:11.572Z,16.07
2023-05-18T03:02:40.277Z,16.47
2023-05-18T03:05:11.726Z,19.40
2023-05-18T03:07:39.698Z,13.33
2023-05-18T03:10:08.940Z,15.73
2023-05-18T03:12:39.083Z,17.27
2023-05-18T03:15:07.854Z,16.77
2023-05-18T03:17:35.971Z,17.43
2023-05-18T03:20:05.169Z,18.33
2023-05-18T03:22:34.615Z,14.43
2023-05-18T03:25:02.668Z,15.47
2023-05-18T03:27:33.884Z,16.37
2023-05-18T03:30:01.965Z,12.93
2023-05-18T03:32:31.909Z,13.60
2023-05-18T03:35:01.146Z,15.67
2023-05-18T03:37:29.193Z,12.90
2023-05-18T03:40:10.234Z,12.77
2023-05-18T03:42:38.546Z,11.17
2023-05-18T03:45:07.761Z,13.57
2023-05-18T03:47:36.025Z,13.47
2023-05-18T03:50:05.050Z,13.83
2023-05-18T03:52:34.207Z,15.10
2023-05-18T03:55:04.693Z,10.20
2023-05-18T03:57:33.208Z,11.97
2023-05-18T04:00:01.756Z,15.13
2023-05-18T04:02:30.058Z,11.23
2023-05-18T04:04:58.156Z,13.53
2023-05-18T04:07:26.498Z,16.57
2023-05-18T04:09:56.560Z,11.73
2023-05-18T04:12:25.954Z,17.60
2023-05-18T04:14:54.157Z,16.30
2023-05-18T04:17:23.690Z,13.20
2023-05-18T04:19:51.834Z,14.60
2023-05-18T04:22:20.095Z,14.83
2023-05-18T04:24:48.077Z,14.23
2023-05-18T04:27:16.377Z,12.40
2023-05-18T04:29:47.208Z,17.50
2023-05-18T04:32:15.312Z,10.33
2023-05-18T04:34:43.339Z,11.57
2023-05-18T04:37:12.414Z,13.80
2023-05-18T04:39:42.275Z,16.07
2023-05-18T04:42:10.573Z,9.27
2023-05-18T04:44:41.208Z,8.93
2023-05-18T04:47:10.567Z,11.17
2023-05-18T04:49:38.623Z,10.60
2023-05-18T04:52:10.239Z,7.67
2023-05-18T04:54:41.286Z,9.17
2023-05-18T04:57:09.277Z,10.07
2023-05-18T04:59:37.891Z,6.70
2023-05-18T05:02:06.618Z,7.47
2023-05-18T05:04:38.352Z,6.67
2023-05-18T05:07:06.645Z,10.03
2023-05-18T05:09:34.618Z,6.90
2023-05-18T05:12:02.618Z,8.97
2023-05-18T05:14:30.696Z,5.47
2023-05-18T05:16:58.826Z,5.57
2023-05-18T05:19:27.163Z,8.63
2023-05-18T05:21:56.653Z,7.83
2023-05-18T05:24:24.701Z,6.03
2023-05-18T05:26:52.704Z,5.50
2023-05-18T05:29:21.562Z,5.67
2023-05-18T05:31:49.637Z,7.60
2023-05-18T05:34:17.693Z,7.53
2023-05-18T05:36:45.779Z,6.23
2023-05-18T05:39:15.140Z,6.03
2023-05-18T05:41:43.105Z,8.87
2023-05-18T05:44:11.142Z,5.53
2023-05-18T05:46:39.229Z,7.37
2023-05-18T05:49:07.273Z,8.53
2023-05-18T05:51:35.481Z,7.20
2023-05-18T05:54:06.902Z,5.90
2023-05-18T05:56:37.520Z,4.67
2023-05-18T05:59:05.491Z,5.90
2023-05-18T06:01:34.741Z,6.97
2023-05-18T06:04:04.137Z,5.97
2023-05-18T06:06:32.273Z,5.00
2023-05-18T06:09:00.916Z,9.57
2023-05-18T06:11:28.949Z,7.43
2023-05-18T06:14:01.376Z,5.53
2023-05-18T06:16:31.372Z,4.23
2023-05-18T06:18:59.609Z,6.37
2023-05-18T06:21:29.933Z,5.40
2023-05-18T06:23:57.917Z,6.13
2023-05-18T06:26:25.906Z,4.53
2023-05-18T06:28:54.015Z,6.47
2023-05-18T06:31:23.448Z,6.70
2023-05-18T06:33:52.271Z,5.70
2023-05-18T06:36:20.336Z,4.13
2023-05-18T06:38:48.420Z,4.50
2023-05-18T06:41:17.554Z,4.17
2023-05-18T06:43:45.648Z,8.47
2023-05-18T06:46:21.068Z,5.30
2023-05-18T06:48:51.788Z,5.83
2023-05-18T06:51:20.124Z,3.87
2023-05-18T06:53:48.098Z,4.13
2023-05-18T06:56:16.645Z,8.60
2023-05-18T06:58:44.784Z,2.33
2023-05-18T07:01:13.667Z,7.53
2023-05-18T07:03:41.928Z,5.90
2023-05-18T07:06:11.309Z,4.00
2023-05-18T07:08:39.395Z,5.27
2023-05-18T07:11:07.662Z,6.17
2023-05-18T07:13:35.844Z,4.97
2023-05-18T07:16:03.907Z,4.67
2023-05-18T07:18:32.047Z,4.73
2023-05-18T07:21:00.064Z,2.57
2023-05-18T07:23:29.421Z,5.37
2023-05-18T07:25:58.421Z,4.93
2023-05-18T07:28:26.693Z,4.80
2023-05-18T07:30:54.920Z,4.67
2023-05-18T07:33:22.938Z,6.17
2023-05-18T07:35:50.968Z,6.20
2023-05-18T07:38:19.010Z,2.47
2023-05-18T07:40:48.482Z,3.93
2023-05-18T07:43:16.521Z,3.03
2023-05-18T07:45:44.585Z,2.93
2023-05-18T07:48:12.675Z,4.27
2023-05-18T07:50:41.330Z,2.63
2023-05-18T07:53:09.322Z,4.30
2023-05-18T07:55:37.584Z,4.83
2023-05-18T07:58:07.239Z,4.60
2023-05-18T08:00:35.490Z,9.23
2023-05-18T08:03:03.557Z,3.80
2023-05-18T08:05:31.842Z,5.30
2023-05-18T08:08:00.058Z,4.13
2023-05-18T08:10:28.140Z,4.43
2023-05-18T08:12:56.199Z,4.37
2023-05-18T08:15:25.726Z,5.37
2023-05-18T08:17:55.007Z,4.47
2023-05-18T08:20:23.357Z,4.90
2023-05-18T08:22:51.318Z,3.87
2023-05-18T08:25:19.777Z,5.67
2023-05-18T08:27:47.806Z,6.23
2023-05-18T08:30:16.164Z,4.87
2023-05-18T08:32:46.003Z,5.53
2023-05-18T08:35:14.057Z,4.70
2023-05-18T08:37:42.425Z,4.77
2023-05-18T08:40:12.801Z,6.50
2023-05-18T08:42:50.281Z,5.07
2023-05-18T08:45:24.893Z,5.20
2023-05-18T08:47:57.964Z,4.20
2023-05-18T08:50:27.910Z,5.20
2023-05-18T08:53:00.327Z,5.10
2023-05-18T08:55:30.358Z,9.90
2023-05-18T08:58:01.782Z,4.17
2023-05-18T09:00:33.543Z,5.60
2023-05-18T09:03:05.162Z,4.63
2023-05-18T09:05:33.578Z,4.33
2023-05-18T09:08:02.163Z,4.03
2023-05-18T09:10:30.697Z,2.93
2023-05-18T09:13:00.430Z,4.47
2023-05-18T09:15:28.699Z,3.87
2023-05-18T09:17:57.147Z,2.67
2023-05-18T09:20:27.490Z,4.47
2023-05-18T09:22:55.504Z,5.70
2023-05-18T09:25:25.725Z,5.60
2023-05-18T09:27:53.837Z,3.07
2023-05-18T09:30:21.959Z,5.03
2023-05-18T09:32:50.174Z,4.73
2023-05-18T09:35:21.890Z,6.97
2023-05-18T09:37:53.061Z,4.67
2023-05-18T09:40:28.856Z,4.50
2023-05-18T09:42:56.881Z,5.60
2023-05-18T09:45:26.682Z,2.97
2023-05-18T09:47:55.110Z,5.47
2023-05-18T09:50:23.742Z,5.27
2023-05-18T09:52:53.126Z,3.10
2023-05-18T09:55:21.762Z,5.17
2023-05-18T09:57:51.493Z,7.10
2023-05-18T10:00:23.565Z,5.30
2023-05-18T10:02:53.398Z,6.07
2023-05-18T10:05:22.275Z,7.13
2023-05-18T10:07:51.576Z,5.33
2023-05-18T10:10:22.056Z,4.07
2023-05-18T10:12:52.069Z,6.30
2023-05-18T10:15:21.485Z,4.93
2023-05-18T10:17:55.899Z,5.77
2023-05-18T10:20:26.829Z,5.70
2023-05-18T10:22:57.632Z,3.10
2023-05-18T10:25:28.153Z,4.77
2023-05-18T10:27:58.433Z,7.60
2023-05-18T10:30:27.554Z,4.13
2023-05-18T10:32:58.841Z,6.13
2023-05-18T10:35:28.407Z,4.13
2023-05-18T10:37:58.626Z,3.40
2023-05-18T10:40:31.788Z,4.17
2023-05-18T10:43:03.081Z,3.87
2023-05-18T10:45:34.988Z,5.60
2023-05-18T10:48:05.624Z,3.87
2023-05-18T10:50:33.964Z,3.70
2023-05-18T10:53:02.685Z,4.80
2023-05-18T10:55:32.352Z,5.23
2023-05-18T10:58:06.070Z,4.13
2023-05-18T11:00:38.150Z,8.27
2023-05-18T11:03:10.598Z,5.00
2023-05-18T11:05:40.064Z,7.00
2023-05-18T11:08:08.441Z,4.90
2023-05-18T11:10:43.153Z,4.13
2023-05-18T11:13:12.190Z,5.37
2023-05-18T11:16:11.669Z,5.07
2023-05-18T11:18:47.774Z,4.60
2023-05-18T11:21:30.024Z,6.77
2023-05-18T11:24:16.305Z,7.80
2023-05-18T11:26:47.343Z,5.67
2023-05-18T11:29:23.323Z,8.03
2023-05-18T11:31:54.867Z,5.17
2023-05-18T11:34:42.175Z,4.00
2023-05-18T11:37:13.490Z,7.40
2023-05-18T11:39:51.776Z,6.37
2023-05-18T11:42:34.299Z,5.90
2023-05-18T11:45:08.094Z,4.53
2023-05-18T11:47:38.042Z,4.17
2023-05-18T11:50:11.898Z,6.60
2023-05-18T11:52:47.779Z,5.03
2023-05-18T11:55:17.017Z,5.40
2023-05-18T11:57:53.390Z,6.53
2023-05-18T12:00:22.307Z,7.70
2023-05-18T12:02:52.516Z,5.07
2023-05-18T12:05:21.075Z,5.27
2023-05-18T12:07:53.776Z,5.50
2023-05-18T12:10:23.061Z,4.90
2023-05-18T12:12:54.027Z,6.33
2023-05-18T12:15:23.897Z,4.67
2023-05-18T12:17:52.587Z,4.47
2023-05-18T12:20:22.193Z,6.17
2023-05-18T12:22:52.897Z,4.23
2023-05-18T12:25:21.603Z,4.93
2023-05-18T12:27:52.568Z,6.93
2023-05-18T12:30:22.923Z,5.67
2023-05-18T12:32:53.526Z,5.03
2023-05-18T12:35:23.629Z,6.33
2023-05-18T12:37:51.835Z,4.77
2023-05-18T12:40:21.200Z,4.47
2023-05-18T12:42:55.681Z,5.03
2023-05-18T12:45:28.795Z,7.77
2023-05-18T12:47:57.391Z,4.40
2023-05-18T12:50:26.794Z,3.53
2023-05-18T12:52:56.177Z,3.53
2023-05-18T12:55:25.251Z,5.17
2023-05-18T12:58:04.144Z,5.90
2023-05-18T13:00:38.793Z,4.93
2023-05-18T13:03:08.203Z,3.73
2023-05-18T13:05:37.524Z,3.83
2023-05-18T13:08:05.759Z,5.17
2023-05-18T13:10:34.325Z,3.33
2023-05-18T13:13:03.757Z,3.13
2023-05-18T13:15:37.131Z,4.07
2023-05-18T13:18:06.766Z,6.57
2023-05-18T13:20:37.994Z,4.17
2023-05-18T13:23:09.922Z,3.73
2023-05-18T13:25:38.476Z,5.63
2023-05-18T13:28:07.377Z,5.17
2023-05-18T13:30:36.918Z,8.47
2023-05-18T13:33:06.063Z,3.90
2023-05-18T13:35:34.199Z,5.07
2023-05-18T13:38:04.943Z,4.07
2023-05-18T13:40:32.992Z,5.50
2023-05-18T13:43:01.034Z,5.67
2023-05-18T13:45:30.851Z,4.63
2023-05-18T13:48:00.524Z,5.27
2023-05-18T13:50:31.236Z,4.97
2023-05-18T13:52:59.670Z,5.10
2023-05-18T13:55:29.922Z,5.73
2023-05-18T13:57:58.109Z,4.80
2023-05-18T14:00:26.234Z,3.43
2023-05-18T14:02:54.737Z,6.53
2023-05-18T14:05:24.219Z,3.77
2023-05-18T14:07:53.075Z,5.13
2023-05-18T14:10:21.658Z,5.33
2023-05-18T14:12:50.214Z,3.53
2023-05-18T14:15:20.870Z,5.73
2023-05-18T14:17:50.939Z,3.73
2023-05-18T14:20:19.737Z,4.47
2023-05-18T14:22:49.310Z,4.13
2023-05-18T14:25:20.365Z,3.33
2023-05-18T14:27:48.612Z,6.23
2023-05-18T14:30:16.828Z,4.60
2023-05-18T14:32:44.889Z,6.13
2023-05-18T14:35:12.933Z,4.33
2023-05-18T14:37:41.129Z,3.53
2023-05-18T14:40:11.407Z,5.67
2023-05-18T14:42:39.436Z,5.47
2023-05-18T14:45:08.989Z,8.70
2023-05-18T14:47:37.166Z,8.00
2023-05-18T14:50:05.610Z,2.73
2023-05-18T14:52:33.601Z,3.93
2023-05-18T14:55:01.558Z,3.17
2023-05-18T14:57:31.048Z,3.30
2023-05-18T15:00:00.406Z,5.43
2023-05-18T15:02:28.553Z,4.13
2023-05-18T15:04:56.726Z,3.43
2023-05-18T15:07:25.580Z,3.13
2023-05-18T15:09:53.571Z,4.47
2023-05-18T15:12:23.106Z,5.33
2023-05-18T15:14:52.430Z,4.70
2023-05-18T15:17:21.202Z,4.63
2023-05-18T15:19:51.146Z,4.83
2023-05-18T15:22:23.044Z,4.90
2023-05-18T15:24:52.373Z,5.83
2023-05-18T15:27:20.477Z,3.70
2023-05-18T15:29:48.558Z,4.93
2023-05-18T15:32:17.996Z,5.10
2023-05-18T15:34:46.023Z,4.47
2023-05-18T15:37:14.034Z,3.37
2023-05-18T15:39:42.501Z,6.40
2023-05-18T15:42:12.204Z,3.47
2023-05-18T15:44:40.156Z,6.43
2023-05-18T15:47:08.251Z,3.00
2023-05-18T15:49:39.920Z,5.53
2023-05-18T15:52:08.688Z,4.40
2023-05-18T15:54:38.654Z,3.43
2023-05-18T15:57:07.425Z,4.47
2023-05-18T15:59:35.479Z,3.87
2023-05-18T16:02:03.461Z,4.73
2023-05-18T16:04:31.503Z,4.73
2023-05-18T16:07:02.588Z,5.50
2023-05-18T16:09:33.480Z,5.40
2023-05-18T16:12:01.542Z,5.77
2023-05-18T16:14:29.590Z,4.83
2023-05-18T16:16:57.682Z,5.13
2023-05-18T16:19:25.924Z,6.17
2023-05-18T16:21:54.195Z,6.07
2023-05-18T16:24:23.572Z,5.10
2023-05-18T16:26:51.562Z,4.60
2023-05-18T16:29:22.344Z,5.03
2023-05-18T16:31:51.805Z,6.23
2023-05-18T16:34:20.023Z,3.87
2023-05-18T16:36:48.057Z,3.90
2023-05-18T16:39:16.239Z,5.60
2023-05-18T16:41:45.623Z,5.30
2023-05-18T16:44:13.620Z,5.47
2023-05-18T16:46:41.694Z,3.00
2023-05-18T16:49:09.722Z,3.50
2023-05-18T16:51:37.719Z,4.13
2023-05-18T16:54:11.643Z,3.40
2023-05-18T16:56:39.623Z,4.00
2023-05-18T16:59:10.129Z,4.93
2023-05-18T17:01:38.170Z,5.73
2023-05-18T17:04:06.255Z,5.47
2023-05-18T17:06:34.424Z,4.23
2023-05-18T17:09:05.511Z,3.87
2023-05-18T17:11:34.389Z,6.53
2023-05-18T17:14:03.077Z,4.53
2023-05-18T17:16:34.270Z,6.70
2023-05-18T17:19:02.374Z,5.00
2023-05-18T17:21:31.058Z,3.97
2023-05-18T17:23:59.134Z,6.03
2023-05-18T17:26:30.392Z,4.93
2023-05-18T17:29:01.177Z,5.63
2023-05-18T17:31:30.383Z,5.77
2023-05-18T17:34:02.610Z,5.47
2023-05-18T17:36:32.259Z,6.40
2023-05-18T17:39:00.706Z,6.67
2023-05-18T17:41:28.700Z,6.70
2023-05-18T17:43:56.693Z,4.77
2023-05-18T17:46:24.794Z,5.67
2023-05-18T17:48:52.864Z,5.97
2023-05-18T17:51:25.075Z,5.40
2023-05-18T17:53:53.100Z,4.97
2023-05-18T17:56:22.069Z,5.57
2023-05-18T17:58:53.720Z,4.83
2023-05-18T18:01:21.758Z,5.10
2023-05-18T18:03:49.947Z,5.63
2023-05-18T18:06:22.254Z,5.53
2023-05-18T18:08:54.700Z,9.80
2023-05-18T18:11:23.201Z,7.37
2023-05-18T18:13:52.200Z,4.43
2023-05-18T18:16:21.279Z,6.77
2023-05-18T18:18:50.524Z,6.17
2023-05-18T18:21:18.682Z,4.87
2023-05-18T18:23:46.745Z,4.80
2023-05-18T18:26:16.193Z,6.30
2023-05-18T18:28:44.216Z,4.80
2023-05-18T18:31:12.273Z,4.83
2023-05-18T18:33:40.449Z,11.97
2023-05-18T18:36:11.981Z,6.43
2023-05-18T18:38:39.957Z,5.20
2023-05-18T18:41:09.175Z,6.60
2023-05-18T18:43:39.829Z,6.17
2023-05-18T18:46:08.185Z,5.20
2023-05-18T18:48:36.345Z,6.20
2023-05-18T18:51:04.468Z,6.00
2023-05-18T18:53:32.461Z,6.13
2023-05-18T18:56:00.842Z,4.90
2023-05-18T18:58:30.941Z,6.03
2023-05-18T19:01:00.508Z,6.43
2023-05-18T19:03:29.214Z,8.00
2023-05-18T19:05:57.679Z,6.33
2023-05-18T19:08:25.793Z,6.80
2023-05-18T19:10:53.835Z,9.07
2023-05-18T19:13:21.859Z,9.40
2023-05-18T19:15:50.299Z,10.03
2023-05-18T19:18:20.026Z,10.43
2023-05-18T19:20:49.218Z,10.30
2023-05-18T19:23:17.225Z,15.43
2023-05-18T19:25:45.242Z,15.63
2023-05-18T19:28:13.239Z,13.57
2023-05-18T19:30:41.280Z,10.63
2023-05-18T19:33:12.283Z,10.90
2023-05-18T19:35:41.749Z,8.53
2023-05-18T19:38:09.757Z,8.23
2023-05-18T19:40:37.776Z,7.67
2023-05-18T19:43:05.788Z,8.63
2023-05-18T19:45:34.684Z,9.00
2023-05-18T19:48:03.087Z,7.90
2023-05-18T19:50:31.248Z,6.33
2023-05-18T19:53:01.863Z,8.10
2023-05-18T19:55:31.120Z,7.43
2023-05-18T19:58:00.431Z,7.73
2023-05-18T20:00:28.541Z,10.73
2023-05-18T20:02:56.583Z,6.93
2023-05-18T20:05:28.011Z,8.07
2023-05-18T20:07:58.063Z,7.67
2023-05-18T20:10:27.530Z,7.60
2023-05-18T20:12:55.562Z,7.90
2023-05-18T20:15:23.592Z,6.73
2023-05-18T20:17:51.677Z,7.40
2023-05-18T20:20:20.117Z,9.27
2023-05-18T20:22:48.322Z,6.77
2023-05-18T20:25:16.448Z,7.30
2023-05-18T20:27:45.862Z,7.00
2023-05-18T20:30:14.101Z,6.40
2023-05-18T20:32:44.752Z,8.13
2023-05-18T20:35:13.098Z,8.00
2023-05-18T20:37:41.677Z,7.10
2023-05-18T20:40:13.525Z,8.70
2023-05-18T20:42:41.590Z,7.13
2023-05-18T20:45:12.367Z,6.00
2023-05-18T20:47:41.635Z,7.03
2023-05-18T20:50:11.876Z,6.87
2023-05-18T20:52:39.987Z,7.93
2023-05-18T20:55:12.150Z,7.63
2023-05-18T20:57:40.730Z,9.07
2023-05-18T21:00:13.334Z,9.47
2023-05-18T21:02:45.615Z,8.97
2023-05-18T21:05:14.495Z,8.87
2023-05-18T21:07:42.592Z,10.07
2023-05-18T21:10:13.762Z,9.00
2023-05-18T21:12:41.778Z,10.20
2023-05-18T21:15:11.966Z,7.33
2023-05-18T21:17:40.086Z,8.33
2023-05-18T21:20:09.912Z,8.53
2023-05-18T21:22:37.927Z,7.70
2023-05-18T21:25:06.685Z,9.30
2023-05-18T21:27:34.707Z,9.30
2023-05-18T21:30:02.722Z,9.90
2023-05-18T21:32:32.251Z,7.43
2023-05-18T21:35:00.425Z,8.07
2023-05-18T21:37:30.109Z,7.73
2023-05-18T21:39:58.114Z,9.50
2023-05-18T21:42:26.153Z,7.97
2023-05-18T21:44:56.024Z,8.13
2023-05-18T21:47:24.091Z,8.50
2023-05-18T21:49:53.492Z,10.20
2023-05-18T21:52:21.740Z,9.03
2023-05-18T21:54:51.605Z,7.37
2023-05-18T21:57:19.617Z,8.30
2023-05-18T21:59:47.603Z,7.97
2023-05-18T22:02:15.630Z,6.97
2023-05-18T22:04:43.668Z,8.83
2023-05-18T22:07:13.877Z,7.80
2023-05-18T22:09:42.904Z,7.03
2023-05-18T22:12:11.306Z,5.97
2023-05-18T22:14:39.448Z,6.63
2023-05-18T22:17:08.853Z,7.47
2023-05-18T22:19:36.923Z,9.33
2023-05-18T22:22:05.810Z,7.73
2023-05-18T22:24:35.361Z,7.67
2023-05-18T22:27:03.947Z,6.10
2023-05-18T22:29:31.995Z,5.53
2023-05-18T22:32:00.135Z,8.27
2023-05-18T22:34:28.190Z,6.10
2023-05-18T22:36:56.170Z,6.07
2023-05-18T22:39:24.155Z,7.63
2023-05-18T22:41:53.516Z,6.77
2023-05-18T22:44:21.521Z,7.93
2023-05-18T22:46:49.576Z,7.83
2023-05-18T22:49:17.598Z,8.77
2023-05-18T22:51:46.152Z,7.57
2023-05-18T22:54:14.153Z,7.97
2023-05-18T22:56:42.156Z,7.80
2023-05-18T22:59:11.846Z,7.50
2023-05-18T23:01:40.081Z,8.47
2023-05-18T23:04:08.211Z,6.53
2023-05-18T23:06:36.232Z,8.47
2023-05-18T23:09:04.244Z,6.03
2023-05-18T23:11:34.964Z,7.97
2023-05-18T23:14:03.120Z,8.47
2023-05-18T23:16:32.788Z,7.73
2023-05-18T23:19:01.740Z,5.00
2023-05-18T23:21:30.998Z,8.07
2023-05-18T23:23:59.710Z,6.87
2023-05-18T23:26:27.767Z,5.53
2023-05-18T23:28:55.741Z,6.43
2023-05-18T23:31:23.756Z,5.90
2023-05-18T23:33:53.837Z,5.83
2023-05-18T23:36:22.679Z,7.17
2023-05-18T23:38:51.984Z,8.30
2023-05-18T23:41:20.482Z,6.87
2023-05-18T23:43:48.965Z,6.40
2023-05-18T23:46:17.792Z,5.20
2023-05-18T23:48:46.621Z,7.57
2023-05-18T23:51:18.884Z,4.97
2023-05-18T23:53:47.750Z,5.17
2023-05-18T23:56:16.309Z,4.53
2023-05-18T23:58:45.682Z,4.93
